createdAt,value
2019-04-16T00:00:42.758Z,13.63
2019-04-16T00:03:12.285Z,13.97
2019-04-16T00:05:43.385Z,14.30
2019-04-16T00:08:27.057Z,13.77
2019-04-16T00:10:59.127Z,15.03
2019-04-16T00:13:42.246Z,14.93
2019-04-16T00:16:13.035Z,16.83
2019-04-16T00:18:56.349Z,13.37
2019-04-16T00:21:27.850Z,16.93
2019-04-16T00:24:10.975Z,15.67
2019-04-16T00:26:40.516Z,17.57
2019-04-16T00:29:09.968Z,16.37
2019-04-16T00:31:39.899Z,15.60
2019-04-16T00:34:13.450Z,17.13
2019-04-16T00:36:40.505Z,19.07
2019-04-16T00:39:10.022Z,18.37
2019-04-16T00:41:39.567Z,18.93
2019-04-16T00:44:09.073Z,16.37
2019-04-16T00:46:38.554Z,17.03
2019-04-16T00:49:08.150Z,18.60
2019-04-16T00:51:37.561Z,19.00
2019-04-16T00:54:09.697Z,19.57
2019-04-16T00:56:38.115Z,17.87
2019-04-16T00:59:07.561Z,16.90
2019-04-16T01:01:37.030Z,17.10
2019-04-16T01:04:06.727Z,15.73
2019-04-16T01:06:37.894Z,17.97
2019-04-16T01:09:07.550Z,19.03
2019-04-16T01:11:37.390Z,19.83
2019-04-16T01:14:07.109Z,25.83
2019-04-16T01:16:36.586Z,20.37
2019-04-16T01:19:09.493Z,17.83
2019-04-16T01:21:37.191Z,18.60
2019-04-16T01:24:06.625Z,19.73
2019-04-16T01:26:36.089Z,14.87
2019-04-16T01:29:08.248Z,19.00
2019-04-16T01:31:39.371Z,16.20
2019-04-16T01:34:15.267Z,17.77
2019-04-16T01:36:45.813Z,17.40
2019-04-16T01:39:18.279Z,16.77
2019-04-16T01:41:50.321Z,15.43
2019-04-16T01:44:18.931Z,16.30
2019-04-16T01:46:48.399Z,13.90
2019-04-16T01:49:17.848Z,14.37
2019-04-16T01:51:47.470Z,15.70
2019-04-16T01:54:17.558Z,20.63
2019-04-16T01:56:47.027Z,16.07
2019-04-16T01:59:16.466Z,17.87
2019-04-16T02:01:45.925Z,13.97
2019-04-16T02:04:19.538Z,18.27
2019-04-16T02:06:46.537Z,15.03
2019-04-16T02:09:22.246Z,14.93
2019-04-16T02:11:47.143Z,18.23
2019-04-16T02:14:18.457Z,14.73
2019-04-16T02:16:47.662Z,16.47
2019-04-16T02:19:17.102Z,19.97
2019-04-16T02:21:46.561Z,15.20
2019-04-16T02:24:18.574Z,15.33
2019-04-16T02:26:47.153Z,14.63
2019-04-16T02:29:16.596Z,17.73
2019-04-16T02:31:47.855Z,14.10
2019-04-16T02:34:17.141Z,20.77
2019-04-16T02:36:46.596Z,14.93
2019-04-16T02:39:16.041Z,15.50
2019-04-16T02:41:45.527Z,14.93
2019-04-16T02:44:17.131Z,15.93
2019-04-16T02:46:46.050Z,14.17
2019-04-16T02:49:15.486Z,15.47
2019-04-16T02:51:49.780Z,13.27
2019-04-16T02:54:20.859Z,11.80
2019-04-16T02:56:57.444Z,11.17
2019-04-16T02:59:34.527Z,14.53
2019-04-16T03:02:24.069Z,14.37
2019-04-16T03:04:58.177Z,14.40
2019-04-16T03:07:26.301Z,13.87
2019-04-16T03:10:01.591Z,14.13
2019-04-16T03:12:26.840Z,14.80
2019-04-16T03:15:00.773Z,16.53
2019-04-16T03:17:32.051Z,13.37
2019-04-16T03:20:05.812Z,13.30
2019-04-16T03:22:35.287Z,13.20
2019-04-16T03:25:12.620Z,13.27
2019-04-16T03:27:37.846Z,16.87
2019-04-16T03:30:08.036Z,14.73
2019-04-16T03:32:48.542Z,14.43
2019-04-16T03:35:18.048Z,13.67
2019-04-16T03:37:47.510Z,15.23
2019-04-16T03:40:18.661Z,14.63
2019-04-16T03:42:48.047Z,11.47
2019-04-16T03:45:17.493Z,19.87
2019-04-16T03:50:49.616Z,11.70
2019-04-16T03:53:19.092Z,14.43
2019-04-16T03:55:48.543Z,12.53
2019-04-16T03:58:18.023Z,12.90
2019-04-16T04:00:47.481Z,18.43
2019-04-16T04:03:16.960Z,12.57
2019-04-16T04:05:48.055Z,10.50
2019-04-16T04:08:18.103Z,10.43
2019-04-16T04:10:47.792Z,14.93
2019-04-16T04:13:37.675Z,14.47
2019-04-16T04:16:07.417Z,11.77
2019-04-16T04:18:42.882Z,13.53
2019-04-16T04:21:09.121Z,16.70
2019-04-16T04:23:38.518Z,15.60
2019-04-16T04:26:08.899Z,10.97
2019-04-16T04:28:39.071Z,19.23
2019-04-16T04:31:08.591Z,15.30
2019-04-16T04:33:41.606Z,11.93
2019-04-16T04:36:10.921Z,18.30
2019-04-16T04:38:40.665Z,11.03
2019-04-16T04:41:10.188Z,16.40
2019-04-16T04:43:39.659Z,11.73
2019-04-16T04:46:13.016Z,13.73
2019-04-16T04:48:40.215Z,13.30
2019-04-16T04:51:10.646Z,15.07
2019-04-16T04:53:40.121Z,12.63
2019-04-16T04:56:09.666Z,11.93
2019-04-16T04:58:39.151Z,12.37
2019-04-16T05:01:12.044Z,18.40
2019-04-16T05:03:41.348Z,13.83
2019-04-16T05:06:12.444Z,16.53
2019-04-16T05:08:41.920Z,15.17
2019-04-16T05:11:21.767Z,16.00
2019-04-16T05:14:02.517Z,14.03
2019-04-16T05:16:35.133Z,13.27
2019-04-16T05:19:04.622Z,14.90
2019-04-16T05:21:35.144Z,11.87
2019-04-16T05:24:04.680Z,13.47
2019-04-16T05:26:36.475Z,13.97
2019-04-16T05:29:16.231Z,14.33
2019-04-16T05:31:43.455Z,10.10
2019-04-16T05:34:12.924Z,18.07
2019-04-16T05:36:46.597Z,16.67
2019-04-16T05:39:13.483Z,14.83
2019-04-16T05:41:42.931Z,15.17
2019-04-16T05:44:12.400Z,13.40
2019-04-16T05:46:46.275Z,13.77
2019-04-16T05:49:13.028Z,14.27
2019-04-16T05:51:42.484Z,12.27
2019-04-16T05:54:29.403Z,12.47
2019-04-16T05:57:03.452Z,12.17
2019-04-16T05:59:33.899Z,13.80
2019-04-16T06:02:09.776Z,11.93
2019-04-16T06:04:39.252Z,10.47
2019-04-16T06:07:08.705Z,16.23
2019-04-16T06:09:38.175Z,12.07
2019-04-16T06:12:08.933Z,16.77
2019-04-16T06:14:43.303Z,14.77
2019-04-16T06:17:20.332Z,11.90
2019-04-16T06:19:54.008Z,14.13
2019-04-16T06:22:29.571Z,13.80
2019-04-16T06:25:09.419Z,15.17
2019-04-16T06:27:54.867Z,11.90
2019-04-16T06:30:35.198Z,15.23
2019-04-16T06:33:06.444Z,13.87
2019-04-16T06:35:49.492Z,12.57
2019-04-16T06:38:23.380Z,14.03
2019-04-16T06:41:06.671Z,12.73
2019-04-16T06:43:44.584Z,13.77
2019-04-16T06:46:27.919Z,12.30
2019-04-16T06:48:59.012Z,15.20
2019-04-16T06:51:48.239Z,15.60
2019-04-16T06:54:35.595Z,14.63
2019-04-16T06:57:22.824Z,15.80
2019-04-16T07:00:12.092Z,17.83
2019-04-16T07:02:50.217Z,13.70
2019-04-16T07:05:33.235Z,12.17
2019-04-16T07:08:18.355Z,13.07
2019-04-16T07:10:55.176Z,16.43
2019-04-16T07:13:24.717Z,12.23
2019-04-16T07:15:56.944Z,13.33
2019-04-16T07:18:25.349Z,12.70
2019-04-16T07:20:54.828Z,13.87
2019-04-16T07:23:25.595Z,16.33
2019-04-16T07:25:55.481Z,15.50
2019-04-16T07:28:26.869Z,12.73
2019-04-16T07:31:00.637Z,18.50
2019-04-16T07:33:48.349Z,14.83
2019-04-16T07:36:19.465Z,18.50
2019-04-16T07:39:06.930Z,15.17
2019-04-16T07:41:43.058Z,18.63
2019-04-16T07:44:11.335Z,13.40
2019-04-16T07:46:58.846Z,14.90
2019-04-16T07:49:30.052Z,12.97
2019-04-16T07:52:12.202Z,16.20
2019-04-16T07:54:51.662Z,15.23
2019-04-16T07:57:21.138Z,18.33
2019-04-16T07:59:50.618Z,11.80
2019-04-16T08:02:21.610Z,14.90
2019-04-16T08:04:51.523Z,14.27
2019-04-16T08:07:21.351Z,14.10
2019-04-16T08:09:50.870Z,20.53
2019-04-16T08:12:30.142Z,17.67
2019-04-16T08:14:51.410Z,14.10
2019-04-16T08:17:20.897Z,13.80
2019-04-16T08:19:50.344Z,14.37
2019-04-16T08:22:19.848Z,12.73
2019-04-16T08:24:50.923Z,13.07
2019-04-16T08:27:20.396Z,16.13
2019-04-16T08:29:49.855Z,12.00
2019-04-16T08:32:19.340Z,17.87
2019-04-16T08:34:48.793Z,14.47
2019-04-16T08:37:18.276Z,14.73
2019-04-16T08:39:47.719Z,16.40
2019-04-16T08:42:17.202Z,14.33
2019-04-16T08:44:46.663Z,16.33
2019-04-16T08:47:16.138Z,14.50
2019-04-16T08:49:45.697Z,14.50
2019-04-16T08:52:15.246Z,17.53
2019-04-16T08:54:49.926Z,15.47
2019-04-16T08:57:15.806Z,21.63
2019-04-16T08:59:45.272Z,14.30
2019-04-16T09:02:14.758Z,15.87
2019-04-16T09:04:44.220Z,14.77
2019-04-16T09:07:31.635Z,15.27
2019-04-16T09:10:16.347Z,16.70
2019-04-16T09:12:34.805Z,14.43
2019-04-16T09:15:09.324Z,17.10
2019-04-16T09:17:40.275Z,13.23
2019-04-16T09:20:11.453Z,13.30
2019-04-16T09:22:48.953Z,13.23
2019-04-16T09:25:17.970Z,15.63
2019-04-16T09:27:49.084Z,14.30
2019-04-16T09:30:22.916Z,14.20
2019-04-16T09:32:54.036Z,14.00
2019-04-16T09:35:25.140Z,18.20
2019-04-16T09:37:59.047Z,13.73
2019-04-16T09:40:39.016Z,12.87
2019-04-16T09:43:16.604Z,15.47
2019-04-16T09:45:41.380Z,12.53
2019-04-16T09:48:10.857Z,16.93
2019-04-16T09:50:46.523Z,18.00
2019-04-16T09:53:11.493Z,15.47
2019-04-16T09:55:40.949Z,13.87
2019-04-16T09:58:12.075Z,15.10
2019-04-16T10:00:47.100Z,15.83
2019-04-16T10:03:34.168Z,15.93
2019-04-16T10:06:05.590Z,17.40
2019-04-16T10:08:34.978Z,17.73
2019-04-16T10:11:06.254Z,17.87
2019-04-16T10:13:36.322Z,15.33
2019-04-16T10:16:06.723Z,16.67
2019-04-16T10:18:36.233Z,17.00
2019-04-16T10:21:05.712Z,17.83
2019-04-16T10:23:36.879Z,16.63
2019-04-16T10:26:06.430Z,16.50
2019-04-16T10:28:37.778Z,16.50
2019-04-16T10:31:07.320Z,14.60
2019-04-16T10:33:36.870Z,15.33
2019-04-16T10:36:06.334Z,15.50
2019-04-16T10:38:43.301Z,17.20
2019-04-16T10:41:14.386Z,20.30
2019-04-16T10:43:57.898Z,17.93
2019-04-16T10:46:31.639Z,16.93
2019-04-16T10:49:02.767Z,19.00
2019-04-16T10:51:33.910Z,16.60
2019-04-16T10:54:16.906Z,17.00
2019-04-16T10:56:48.022Z,13.67
2019-04-16T10:59:19.218Z,14.33
2019-04-16T11:01:56.651Z,16.37
2019-04-16T11:04:30.976Z,17.30
2019-04-16T11:07:02.077Z,15.85
2019-04-16T11:09:31.575Z,19.92
2019-04-16T11:12:04.774Z,15.80
2019-04-16T11:14:33.220Z,16.53
2019-04-16T11:17:02.825Z,20.23
2019-04-16T11:19:32.391Z,17.73
2019-04-16T11:22:03.934Z,20.03
2019-04-16T11:24:32.959Z,17.52
2019-04-16T11:27:02.426Z,16.17
2019-04-16T11:29:31.934Z,17.62
2019-04-16T11:32:01.461Z,19.25
2019-04-16T11:34:31.015Z,19.45
2019-04-16T11:37:00.494Z,17.40
2019-04-16T11:39:29.981Z,20.10
2019-04-16T11:41:59.547Z,20.60
2019-04-16T11:44:29.018Z,16.37
2019-04-16T11:46:58.476Z,16.82
2019-04-16T11:49:28.031Z,15.45
2019-04-16T11:51:57.426Z,19.62
2019-04-16T11:54:26.939Z,16.12
2019-04-16T11:56:59.316Z,18.25
2019-04-16T11:59:27.501Z,18.95
2019-04-16T12:01:58.637Z,16.25
2019-04-16T12:04:38.355Z,18.60
2019-04-16T12:07:21.672Z,17.73
2019-04-16T12:09:52.807Z,19.50
2019-04-16T12:12:40.299Z,17.80
2019-04-16T12:15:17.517Z,15.70
2019-04-16T12:17:57.856Z,21.95
2019-04-16T12:20:47.148Z,20.25
2019-04-16T12:23:30.393Z,16.67
2019-04-16T12:26:13.395Z,22.25
2019-04-16T12:28:59.802Z,24.10
2019-04-16T12:31:39.496Z,18.65
2019-04-16T12:34:16.381Z,18.48
2019-04-16T12:36:50.538Z,18.65
2019-04-16T12:39:38.176Z,19.30
2019-04-16T12:42:14.804Z,19.30
2019-04-16T12:44:58.112Z,21.60
2019-04-16T12:47:41.241Z,19.05
2019-04-16T12:50:17.244Z,17.10
2019-04-16T12:52:57.445Z,21.80
2019-04-16T12:55:32.673Z,17.80
2019-04-16T12:58:03.957Z,19.60
2019-04-16T13:00:35.075Z,18.75
2019-04-16T13:03:06.722Z,22.27
2019-04-16T13:05:44.677Z,20.50
2019-04-16T13:08:18.744Z,18.65
2019-04-16T13:11:02.059Z,21.07
2019-04-16T13:13:49.424Z,21.95
2019-04-16T13:16:20.533Z,21.57
2019-04-16T13:18:54.435Z,21.00
2019-04-16T13:21:25.546Z,21.77
2019-04-16T13:23:56.704Z,18.10
2019-04-16T13:26:31.812Z,20.97
2019-04-16T13:29:03.089Z,21.93
2019-04-16T13:31:32.617Z,22.22
2019-04-16T13:34:02.112Z,18.90
2019-04-16T13:36:31.650Z,18.87
2019-04-16T13:39:02.773Z,18.87
2019-04-16T13:41:33.232Z,18.42
2019-04-16T13:44:08.197Z,20.80
2019-04-16T13:46:35.447Z,20.65
2019-04-16T13:49:18.469Z,21.45
2019-04-16T13:51:48.427Z,21.57
2019-04-16T13:54:35.097Z,20.92
2019-04-16T13:57:06.323Z,24.02
2019-04-16T13:59:55.854Z,20.45
2019-04-16T14:02:33.784Z,25.70
2019-04-16T14:05:05.210Z,22.55
2019-04-16T14:07:34.863Z,23.52
2019-04-16T14:10:06.187Z,23.38
2019-04-16T14:12:42.182Z,22.05
2019-04-16T14:15:09.010Z,24.18
2019-04-16T14:17:51.883Z,29.15
2019-04-16T14:20:12.808Z,24.23
2019-04-16T14:22:41.367Z,23.70
2019-04-16T14:25:11.100Z,22.05
2019-04-16T14:27:40.559Z,22.20
2019-04-16T14:30:12.029Z,24.87
2019-04-16T14:32:41.499Z,20.37
2019-04-16T14:35:12.772Z,22.77
2019-04-16T14:37:42.303Z,23.10
2019-04-16T14:40:13.776Z,22.05
2019-04-16T14:42:43.303Z,24.35
2019-04-16T14:45:18.087Z,21.30
2019-04-16T14:47:47.556Z,21.57
2019-04-16T14:50:20.032Z,25.17
2019-04-16T14:52:49.102Z,23.00
2019-04-16T14:55:32.630Z,24.32
2019-04-16T14:58:03.742Z,23.45
2019-04-16T15:00:43.523Z,24.20
2019-04-16T15:03:14.799Z,23.62
2019-04-16T15:06:01.911Z,22.48
2019-04-16T15:08:33.024Z,27.80
2019-04-16T15:11:19.412Z,23.02
2019-04-16T15:13:50.515Z,30.77
2019-04-16T15:16:37.744Z,26.00
2019-04-16T15:19:21.730Z,24.05
2019-04-16T15:22:14.366Z,26.97
2019-04-16T15:24:45.388Z,20.57
2019-04-16T15:27:28.109Z,28.23
2019-04-16T15:30:14.556Z,24.87
2019-04-16T15:32:57.882Z,22.40
2019-04-16T15:35:35.242Z,22.73
2019-04-16T15:38:12.600Z,26.62
2019-04-16T15:40:49.681Z,24.05
2019-04-16T15:43:32.867Z,24.40
2019-04-16T15:46:24.996Z,25.15
2019-04-16T15:48:54.424Z,26.50
2019-04-16T15:51:34.636Z,21.00
2019-04-16T15:54:05.786Z,21.17
2019-04-16T15:56:43.149Z,23.73
2019-04-16T15:59:30.981Z,22.15
2019-04-16T16:02:02.117Z,23.45
2019-04-16T16:04:41.872Z,24.95
2019-04-16T16:07:11.435Z,24.10
2019-04-16T16:10:00.763Z,22.48
2019-04-16T16:12:30.496Z,24.55
2019-04-16T16:14:59.959Z,26.35
2019-04-16T16:17:29.446Z,24.87
2019-04-16T16:20:11.255Z,29.30
2019-04-16T16:22:40.589Z,24.18
2019-04-16T16:25:15.716Z,24.67
2019-04-16T16:27:47.171Z,22.85
2019-04-16T16:30:16.924Z,26.73
2019-04-16T16:32:47.773Z,23.90
2019-04-16T16:35:18.419Z,22.93
2019-04-16T16:37:48.346Z,25.20
2019-04-16T16:40:17.814Z,26.97
2019-04-16T16:42:47.571Z,26.80
2019-04-16T16:45:17.112Z,29.50
2019-04-16T16:47:46.598Z,27.05
2019-04-16T16:50:16.237Z,23.85
2019-04-16T16:52:50.104Z,25.02
2019-04-16T16:55:24.189Z,26.02
2019-04-16T16:57:55.402Z,23.98
2019-04-16T17:00:42.867Z,28.60
2019-04-16T17:03:14.136Z,23.62
2019-04-16T17:05:44.876Z,25.50
2019-04-16T17:08:14.364Z,25.52
2019-04-16T17:10:43.827Z,27.87
2019-04-16T17:13:14.645Z,25.70
2019-04-16T17:15:44.401Z,28.55
2019-04-16T17:18:13.887Z,26.87
2019-04-16T17:20:43.348Z,27.52
2019-04-16T17:23:16.460Z,21.97
2019-04-16T17:25:44.992Z,22.58
2019-04-16T17:28:14.479Z,27.35
2019-04-16T17:30:45.394Z,24.52
2019-04-16T17:33:15.855Z,26.23
2019-04-16T17:35:46.483Z,27.65
2019-04-16T17:38:16.425Z,25.43
2019-04-16T17:40:55.720Z,23.65
2019-04-16T17:43:26.535Z,26.25
2019-04-16T17:46:09.689Z,26.77
2019-04-16T17:48:46.818Z,25.02
2019-04-16T17:51:26.971Z,25.90
2019-04-16T17:54:10.362Z,24.50
2019-04-16T17:56:47.348Z,24.43
2019-04-16T17:59:29.493Z,26.77
2019-04-16T18:02:16.723Z,26.73
2019-04-16T18:05:04.391Z,24.33
2019-04-16T18:07:38.728Z,23.90
2019-04-16T18:10:19.112Z,22.47
2019-04-16T18:13:07.397Z,25.00
2019-04-16T18:15:42.517Z,24.27
2019-04-16T18:18:17.182Z,23.83
2019-04-16T18:20:58.844Z,33.07
2019-04-16T18:23:33.030Z,23.90
2019-04-16T18:26:04.200Z,26.47
2019-04-16T18:28:47.295Z,25.47
2019-04-16T18:31:23.341Z,22.27
2019-04-16T18:34:09.214Z,32.47
2019-04-16T18:36:41.725Z,25.63
2019-04-16T18:39:21.697Z,26.17
2019-04-16T18:41:52.994Z,26.90
2019-04-16T18:44:33.174Z,28.60
2019-04-16T18:47:22.441Z,24.80
2019-04-16T18:49:53.604Z,24.40
2019-04-16T18:52:23.099Z,26.00
2019-04-16T18:54:53.581Z,23.57
2019-04-16T18:57:23.058Z,21.27
2019-04-16T18:59:52.578Z,23.00
2019-04-16T19:02:23.692Z,23.57
2019-04-16T19:04:53.208Z,25.47
2019-04-16T19:07:22.774Z,25.13
2019-04-16T19:09:52.527Z,24.53
2019-04-16T19:12:22.128Z,30.47
2019-04-16T19:14:52.344Z,24.87
2019-04-16T19:17:21.877Z,30.33
2019-04-16T19:19:51.380Z,26.33
2019-04-16T19:22:20.879Z,29.17
2019-04-16T19:24:50.384Z,25.67
2019-04-16T19:27:19.883Z,24.30
2019-04-16T19:29:49.395Z,28.30
2019-04-16T19:32:18.871Z,23.47
2019-04-16T19:34:48.377Z,26.40
2019-04-16T19:37:17.852Z,25.50
2019-04-16T19:39:47.781Z,31.60
2019-04-16T19:42:17.260Z,26.20
2019-04-16T19:44:46.768Z,23.60
2019-04-16T19:47:16.323Z,26.10
2019-04-16T19:49:45.818Z,25.70
2019-04-16T19:52:17.375Z,29.43
2019-04-16T19:54:46.424Z,28.20
2019-04-16T19:57:15.912Z,27.00
2019-04-16T19:59:46.656Z,28.40
2019-04-16T20:02:16.588Z,24.37
2019-04-16T20:04:46.108Z,25.20
2019-04-16T20:07:15.600Z,27.73
2019-04-16T20:09:45.103Z,26.33
2019-04-16T20:12:14.591Z,29.97
2019-04-16T20:14:44.169Z,23.37
2019-04-16T20:17:13.640Z,28.90
2019-04-16T20:19:58.106Z,27.40
2019-04-16T20:22:29.509Z,27.20
2019-04-16T20:24:59.359Z,28.87
2019-04-16T20:27:28.947Z,30.30
2019-04-16T20:29:58.448Z,26.87
2019-04-16T20:32:30.957Z,28.90
2019-04-16T20:35:00.384Z,27.70
2019-04-16T20:37:29.854Z,27.90
2019-04-16T20:39:59.628Z,27.30
2019-04-16T20:42:29.133Z,27.03
2019-04-16T20:44:59.702Z,26.43
2019-04-16T20:47:29.185Z,29.93
2019-04-16T20:49:58.790Z,30.60
2019-04-16T20:52:30.875Z,23.50
2019-04-16T20:54:59.397Z,30.80
2019-04-16T20:57:28.970Z,25.47
2019-04-16T20:59:59.874Z,25.93
2019-04-16T21:02:30.955Z,28.90
2019-04-16T21:05:03.054Z,27.63
2019-04-16T21:07:31.592Z,29.87
2019-04-16T21:10:03.562Z,26.90
2019-04-16T21:12:32.160Z,24.77
2019-04-16T21:15:01.640Z,28.23
2019-04-16T21:17:38.159Z,27.13
2019-04-16T21:20:06.114Z,30.40
2019-04-16T21:22:35.580Z,29.17
2019-04-16T21:25:06.116Z,26.70
2019-04-16T21:27:37.209Z,30.60
2019-04-16T21:30:12.744Z,29.37
2019-04-16T21:32:48.637Z,30.03
2019-04-16T21:35:21.595Z,29.10
2019-04-16T21:37:53.668Z,28.87
2019-04-16T21:40:24.025Z,30.47
2019-04-16T21:42:53.599Z,26.63
2019-04-16T21:45:23.078Z,25.30
2019-04-16T21:47:55.143Z,24.70
2019-04-16T21:50:23.711Z,28.50
2019-04-16T21:52:55.725Z,23.33
2019-04-16T21:55:24.281Z,26.13
2019-04-16T21:57:53.739Z,23.77
2019-04-16T22:00:39.941Z,24.80
2019-04-16T22:03:18.753Z,31.73
2019-04-16T22:05:48.987Z,28.03
2019-04-16T22:08:18.515Z,24.37
2019-04-16T22:10:48.013Z,27.73
2019-04-16T22:13:19.483Z,25.10
2019-04-16T22:15:49.920Z,25.57
2019-04-16T22:18:20.343Z,24.83
2019-04-16T22:20:49.822Z,28.43
2019-04-16T22:23:20.043Z,30.50
2019-04-16T22:25:49.664Z,32.80
2019-04-16T22:28:19.112Z,32.37
2019-04-16T22:30:51.384Z,23.27
2019-04-16T22:33:19.679Z,24.60
2019-04-16T22:35:50.128Z,26.60
2019-04-16T22:38:19.586Z,24.43
2019-04-16T22:40:56.726Z,26.00
2019-04-16T22:43:44.123Z,26.73
2019-04-16T22:46:15.242Z,24.00
2019-04-16T22:49:01.253Z,23.53
2019-04-16T22:51:30.737Z,25.53
2019-04-16T22:54:01.455Z,23.87
2019-04-16T22:56:49.013Z,25.20
2019-04-16T22:59:18.471Z,23.97
2019-04-16T23:01:53.029Z,24.50
2019-04-16T23:04:22.771Z,25.10
2019-04-16T23:06:51.695Z,31.63
2019-04-16T23:09:22.720Z,28.77
2019-04-16T23:11:52.720Z,23.83
2019-04-16T23:14:23.280Z,23.23
2019-04-16T23:16:52.754Z,25.43
2019-04-16T23:19:22.214Z,22.20
2019-04-16T23:21:51.698Z,24.37
2019-04-16T23:24:23.510Z,26.97
2019-04-16T23:26:52.249Z,22.40
2019-04-16T23:29:21.713Z,22.40
2019-04-16T23:31:55.179Z,21.40
2019-04-16T23:34:22.311Z,29.70
2019-04-16T23:36:51.794Z,21.83
2019-04-16T23:39:21.251Z,24.17
2019-04-16T23:41:52.005Z,25.17
2019-04-16T23:44:31.787Z,26.43
2019-04-16T23:47:19.324Z,24.33
2019-04-16T23:49:50.417Z,22.53
2019-04-16T23:52:24.383Z,23.53
2019-04-16T23:55:01.627Z,21.03
2019-04-16T23:57:44.764Z,28.57
